Time;durP1;ratioP1;P1;durP2;ratioP2;P2;SDS_P1;SDS_P2;PMS_P1;PMS_P2;Temp;Humidity;BMP_temperature;BMP_pressure;BME280_temperature;BME280_humidity;BME280_pressure;Samples;Min_cycle;Max_cycle;Signal;HPM_P1;HPM_P2
2021/07/28 00:02:04;;;;;;;12.10;10.00;;;18.40;99.90;;;;;;5034255;28;20465;-68
2021/07/28 00:04:33;;;;;;;14.90;10.73;;;18.40;99.90;;;;;;5014350;28;20029;-68
2021/07/28 00:06:59;;;;;;;12.30;11.00;;;18.40;99.90;;;;;;5014056;28;20030;-68
2021/07/28 00:09:24;;;;;;;13.57;11.15;;;18.40;99.90;;;;;;5031683;28;20060;-68
2021/07/28 00:11:50;;;;;;;16.42;11.45;;;18.40;99.90;;;;;;5032540;28;20041;-68
2021/07/28 00:14:17;;;;;;;13.30;10.88;;;18.50;99.90;;;;;;5045189;28;20067;-68
2021/07/28 00:16:42;;;;;;;13.40;9.95;;;18.60;99.90;;;;;;5052913;28;20454;-67
2021/07/28 00:19:13;;;;;;;13.40;10.10;;;18.50;99.90;;;;;;5039611;28;20041;-68
2021/07/28 00:24:23;;;;;;;12.85;10.80;;;18.50;99.90;;;;;;5033144;28;20047;-67
2021/07/28 00:26:48;;;;;;;11.70;9.95;;;18.50;99.90;;;;;;5032571;28;20112;-68
2021/07/28 00:29:14;;;;;;;11.38;9.55;;;18.40;99.90;;;;;;5032537;28;20029;-68
2021/07/28 00:31:40;;;;;;;10.73;9.00;;;18.40;99.90;;;;;;5032369;28;20540;-68
2021/07/28 00:34:05;;;;;;;12.38;10.50;;;18.40;99.90;;;;;;5033450;28;20040;-67
2021/07/28 00:36:31;;;;;;;10.50;9.32;;;18.40;99.90;;;;;;5032145;28;20071;-68
2021/07/28 00:38:57;;;;;;;15.15;10.93;;;18.40;99.90;;;;;;5033902;28;20049;-67
2021/07/28 00:41:22;;;;;;;11.18;9.95;;;18.40;99.90;;;;;;5052788;28;20067;-67
2021/07/28 00:43:48;;;;;;;10.90;9.15;;;18.40;99.90;;;;;;5052082;28;20029;-67
2021/07/28 00:46:13;;;;;;;15.82;11.63;;;18.30;99.90;;;;;;5053150;28;20025;-67
2021/07/28 00:48:39;;;;;;;12.68;11.25;;;18.30;99.90;;;;;;5045931;28;20032;-67
2021/07/28 00:51:05;;;;;;;14.75;10.82;;;18.30;99.90;;;;;;5033069;28;20033;-68
2021/07/28 00:53:32;;;;;;;11.15;9.50;;;18.30;99.90;;;;;;5032521;28;20391;-67
2021/07/28 00:56:00;;;;;;;11.23;10.00;;;18.30;99.90;;;;;;5032029;28;20037;-67
2021/07/28 00:58:26;;;;;;;11.52;10.32;;;18.30;99.90;;;;;;5032187;28;20037;-68
2021/07/28 01:00:52;;;;;;;11.85;9.93;;;18.30;99.90;;;;;;5031216;28;20335;-68
2021/07/28 01:03:18;;;;;;;13.07;10.52;;;18.30;99.90;;;;;;5032500;28;20041;-68
2021/07/28 01:05:43;;;;;;;11.95;9.65;;;18.30;99.90;;;;;;5031904;28;20026;-68
2021/07/28 01:08:10;;;;;;;10.52;9.27;;;18.20;99.90;;;;;;5040974;28;20463;-68
2021/07/28 01:10:36;;;;;;;10.98;9.50;;;18.20;99.90;;;;;;5032616;28;20463;-68
2021/07/28 01:13:04;;;;;;;9.13;8.25;;;18.20;99.90;;;;;;5041586;28;20037;-68
2021/07/28 01:18:03;;;;;;;13.35;10.48;;;18.20;99.90;;;;;;5051634;28;20122;-68
2021/07/28 01:20:40;;;;;;;11.77;9.90;;;18.20;99.90;;;;;;5032507;28;20397;-68
2021/07/28 01:23:23;;;;;;;11.43;10.15;;;18.20;99.90;;;;;;5031888;28;20074;-68
2021/07/28 01:25:51;;;;;;;11.52;9.57;;;18.20;99.90;;;;;;5031524;28;20029;-68
2021/07/28 01:28:19;;;;;;;11.77;9.95;;;18.20;99.90;;;;;;5031817;28;20053;-68
2021/07/28 01:30:45;;;;;;;10.68;9.57;;;18.20;99.90;;;;;;5030359;28;20036;-68
2021/07/28 01:33:11;;;;;;;11.60;9.98;;;18.10;99.90;;;;;;5030274;28;20374;-68
2021/07/28 01:35:38;;;;;;;11.98;10.38;;;18.10;99.90;;;;;;5026473;28;20041;-68
2021/07/28 01:38:07;;;;;;;11.95;10.20;;;18.10;99.90;;;;;;5031633;28;20049;-68
2021/07/28 01:40:39;;;;;;;15.95;11.82;;;18.00;99.90;;;;;;5031923;28;20025;-68
2021/07/28 01:43:15;;;;;;;11.15;10.02;;;18.00;99.90;;;;;;5040262;28;20057;-68
2021/07/28 01:45:43;;;;;;;12.95;11.65;;;17.90;99.90;;;;;;5034244;28;20033;-68
2021/07/28 01:48:09;;;;;;;12.13;10.90;;;17.90;99.90;;;;;;5036942;28;20536;-68
2021/07/28 01:50:36;;;;;;;12.82;11.27;;;17.90;99.90;;;;;;5031646;28;20026;-68
2021/07/28 01:53:03;;;;;;;12.82;11.43;;;17.90;99.90;;;;;;5031520;28;20037;-68
2021/07/28 01:55:29;;;;;;;14.40;11.65;;;17.90;99.90;;;;;;5031678;28;20149;-68
2021/07/28 01:57:55;;;;;;;14.98;11.38;;;17.80;99.90;;;;;;5031161;28;20025;-68
2021/07/28 02:00:21;;;;;;;12.55;11.00;;;17.90;99.90;;;;;;5031233;28;20022;-68
2021/07/28 02:02:46;;;;;;;12.20;10.40;;;17.80;99.90;;;;;;5030655;28;20037;-68
2021/07/28 02:05:13;;;;;;;12.30;10.40;;;17.90;99.90;;;;;;5031922;28;20033;-68
2021/07/28 02:07:39;;;;;;;14.10;12.45;;;17.80;99.90;;;;;;5042266;28;20040;-68
2021/07/28 02:10:05;;;;;;;11.27;10.18;;;17.90;99.90;;;;;;5036556;28;20497;-68
2021/07/28 02:12:31;;;;;;;12.30;11.05;;;17.80;99.90;;;;;;5031347;28;20045;-68
2021/07/28 02:14:56;;;;;;;11.63;10.00;;;17.80;99.90;;;;;;5030289;28;20118;-68
2021/07/28 02:17:22;;;;;;;13.95;11.75;;;17.80;99.90;;;;;;5031510;28;20149;-68
2021/07/28 02:19:48;;;;;;;13.02;10.85;;;17.80;99.90;;;;;;5030361;28;20087;-68
2021/07/28 02:22:13;;;;;;;11.77;9.90;;;17.80;99.90;;;;;;5034872;28;20155;-68
2021/07/28 02:24:41;;;;;;;12.93;11.43;;;17.80;99.90;;;;;;5034826;28;20391;-68
2021/07/28 02:27:07;;;;;;;11.38;10.00;;;17.80;99.90;;;;;;5035681;28;20045;-67
2021/07/28 02:29:34;;;;;;;10.70;9.60;;;17.70;99.90;;;;;;5035754;28;20078;-69
2021/07/28 02:32:01;;;;;;;11.95;9.63;;;17.70;99.90;;;;;;5035404;28;20041;-69
2021/07/28 02:34:27;;;;;;;12.73;10.20;;;17.80;99.90;;;;;;5035719;28;20518;-68
2021/07/28 02:36:52;;;;;;;10.48;9.48;;;17.70;99.90;;;;;;5040377;28;20033;-67
2021/07/28 02:39:18;;;;;;;10.85;9.75;;;17.70;99.90;;;;;;5037013;28;20057;-68
2021/07/28 02:41:43;;;;;;;9.85;8.85;;;17.70;99.90;;;;;;5034529;28;20029;-68
2021/07/28 02:44:09;;;;;;;8.85;7.95;;;17.70;99.90;;;;;;5035417;28;20034;-68
2021/07/28 02:46:35;;;;;;;8.57;7.78;;;17.70;99.90;;;;;;5035316;28;20372;-68
2021/07/28 02:49:00;;;;;;;9.20;8.23;;;17.70;99.90;;;;;;5034340;28;20109;-68
2021/07/28 02:51:26;;;;;;;7.85;7.05;;;17.70;99.90;;;;;;5049121;28;20037;-68
2021/07/28 02:53:51;;;;;;;8.32;7.40;;;17.70;99.90;;;;;;5037333;28;20493;-69
2021/07/28 02:56:17;;;;;;;8.85;6.95;;;17.70;99.90;;;;;;5035350;28;20143;-68
2021/07/28 02:58:43;;;;;;;7.28;6.53;;;17.70;99.90;;;;;;5033791;28;20029;-68
2021/07/28 03:01:08;;;;;;;8.50;7.07;;;17.60;99.90;;;;;;5034792;28;20037;-68
2021/07/28 03:03:34;;;;;;;7.05;6.20;;;17.60;99.90;;;;;;5034538;28;20040;-68
2021/07/28 03:06:01;;;;;;;8.02;6.82;;;17.60;99.90;;;;;;5033944;28;20037;-68
2021/07/28 03:08:27;;;;;;;7.95;6.57;;;17.60;99.90;;;;;;5047295;28;20434;-68
2021/07/28 03:10:52;;;;;;;7.43;6.72;;;17.60;99.90;;;;;;5033772;28;20061;-68
2021/07/28 03:13:18;;;;;;;7.03;6.40;;;17.60;99.90;;;;;;5034395;28;20092;-68
2021/07/28 03:15:43;;;;;;;7.85;6.85;;;17.50;99.90;;;;;;5033826;28;20490;-68
2021/07/28 03:18:09;;;;;;;8.27;6.75;;;17.50;99.90;;;;;;5034684;28;20022;-68
2021/07/28 03:20:35;;;;;;;7.43;6.63;;;17.50;99.90;;;;;;5034723;28;20068;-68
2021/07/28 03:23:01;;;;;;;8.98;7.32;;;17.40;99.90;;;;;;5033873;28;20038;-68
2021/07/28 03:25:27;;;;;;;8.65;7.25;;;17.30;99.90;;;;;;5038453;28;20359;-68
2021/07/28 03:27:52;;;;;;;8.82;7.93;;;17.30;99.90;;;;;;5037321;28;20036;-68
2021/07/28 03:30:18;;;;;;;7.70;7.00;;;17.30;99.90;;;;;;5034279;28;20021;-68
2021/07/28 03:32:44;;;;;;;7.93;6.90;;;17.20;99.90;;;;;;5033801;28;20526;-68
2021/07/28 03:35:09;;;;;;;7.88;7.05;;;17.20;99.90;;;;;;5034485;28;20032;-68
2021/07/28 03:37:35;;;;;;;7.68;6.80;;;17.30;99.90;;;;;;5041982;28;20383;-68
2021/07/28 03:40:01;;;;;;;7.47;6.65;;;17.20;99.90;;;;;;5033347;28;20040;-68
2021/07/28 03:42:31;;;;;;;8.13;6.38;;;17.20;99.90;;;;;;5034344;28;20116;-67
2021/07/28 03:44:58;;;;;;;7.85;6.72;;;17.20;99.90;;;;;;5042089;28;20041;-68
2021/07/28 03:47:24;;;;;;;7.97;6.45;;;17.10;99.90;;;;;;5041608;28;20033;-68
2021/07/28 03:49:50;;;;;;;11.38;8.18;;;17.20;99.90;;;;;;5033365;28;20033;-68
2021/07/28 03:52:16;;;;;;;10.25;7.72;;;17.20;99.90;;;;;;5033667;28;20593;-68
2021/07/28 03:54:43;;;;;;;8.55;7.22;;;17.20;99.90;;;;;;5038667;28;20027;-69
2021/07/28 03:57:10;;;;;;;8.65;7.05;;;17.20;99.90;;;;;;5040838;28;20471;-68
2021/07/28 03:59:36;;;;;;;10.38;7.72;;;17.20;99.90;;;;;;5034011;28;20025;-68
2021/07/28 04:02:01;;;;;;;8.98;6.50;;;17.20;99.90;;;;;;5032590;28;20576;-68
2021/07/28 04:04:27;;;;;;;7.82;7.07;;;17.20;99.90;;;;;;5033174;28;20087;-68
2021/07/28 04:06:52;;;;;;;7.68;6.55;;;17.20;99.90;;;;;;5033267;28;20072;-68
2021/07/28 04:09:18;;;;;;;10.73;7.07;;;17.20;99.90;;;;;;5032862;28;20395;-68
2021/07/28 04:11:43;;;;;;;8.13;6.72;;;17.20;99.90;;;;;;5032081;28;20069;-68
2021/07/28 04:14:10;;;;;;;7.97;6.82;;;17.20;99.90;;;;;;5033113;28;20027;-68
2021/07/28 04:16:35;;;;;;;8.38;7.25;;;17.20;99.90;;;;;;5034138;28;20026;-68
2021/07/28 04:19:01;;;;;;;9.73;6.78;;;17.20;99.90;;;;;;5032764;28;20026;-68
2021/07/28 04:21:26;;;;;;;9.43;6.70;;;17.20;99.90;;;;;;5015233;28;20040;-69
2021/07/28 04:23:52;;;;;;;7.00;6.28;;;17.20;99.90;;;;;;5031861;28;20053;-68
2021/07/28 04:26:18;;;;;;;9.55;6.88;;;17.20;99.90;;;;;;5032858;28;20022;-68
2021/07/28 04:28:43;;;;;;;8.50;7.60;;;17.30;99.90;;;;;;5032001;28;20481;-69
2021/07/28 04:31:09;;;;;;;7.68;6.82;;;17.30;99.90;;;;;;5032915;28;20037;-68
2021/07/28 04:33:34;;;;;;;7.82;6.45;;;17.40;99.90;;;;;;5032808;28;20029;-67
2021/07/28 04:36:00;;;;;;;6.93;6.32;;;17.40;99.90;;;;;;5032292;28;20032;-68
2021/07/28 04:38:26;;;;;;;8.45;6.85;;;17.40;99.90;;;;;;5032631;28;20049;-68
2021/07/28 04:40:51;;;;;;;8.75;6.32;;;17.40;99.90;;;;;;5029906;28;20029;-68
2021/07/28 04:43:17;;;;;;;7.38;6.63;;;17.50;99.90;;;;;;5030624;28;20037;-68
2021/07/28 04:45:43;;;;;;;7.72;6.78;;;17.50;99.90;;;;;;5033173;28;20022;-68
2021/07/28 04:48:09;;;;;;;8.43;7.00;;;17.50;99.90;;;;;;5030912;28;20018;-69
2021/07/28 04:50:35;;;;;;;10.20;7.25;;;17.60;99.90;;;;;;5032358;28;20421;-68
2021/07/28 04:53:00;;;;;;;7.65;6.75;;;17.60;99.90;;;;;;5031317;28;20831;-68
2021/07/28 04:55:26;;;;;;;7.47;6.78;;;17.60;99.90;;;;;;5032761;28;20378;-68
2021/07/28 04:57:52;;;;;;;9.50;6.78;;;17.70;99.90;;;;;;5031834;28;20522;-68
2021/07/28 05:00:18;;;;;;;9.65;7.13;;;17.80;99.90;;;;;;5033036;28;20035;-69
2021/07/28 05:02:43;;;;;;;10.00;7.20;;;17.90;99.90;;;;;;5031236;28;20050;-69
2021/07/28 05:05:09;;;;;;;9.65;7.78;;;18.00;99.90;;;;;;5032046;28;20122;-68
2021/07/28 05:07:35;;;;;;;8.88;7.45;;;18.00;99.90;;;;;;5032095;28;20033;-69
2021/07/28 05:10:00;;;;;;;8.50;6.50;;;18.10;99.90;;;;;;5031348;28;20105;-69
2021/07/28 05:12:27;;;;;;;10.05;7.38;;;18.10;99.90;;;;;;5031808;28;20121;-68
2021/07/28 05:14:52;;;;;;;10.82;6.75;;;18.10;99.90;;;;;;5031592;28;20025;-68
2021/07/28 05:17:20;;;;;;;10.20;7.15;;;18.10;99.90;;;;;;5031742;28;20075;-68
2021/07/28 05:19:45;;;;;;;8.82;7.53;;;18.10;99.90;;;;;;5030905;28;20022;-68
2021/07/28 05:22:11;;;;;;;7.00;6.30;;;18.20;99.90;;;;;;5031496;28;20029;-68
2021/07/28 05:24:37;;;;;;;10.60;7.10;;;18.20;99.90;;;;;;5029282;28;20056;-69
2021/07/28 05:27:03;;;;;;;8.90;6.95;;;18.20;99.90;;;;;;5033270;28;20032;-68
2021/07/28 05:29:28;;;;;;;8.85;7.15;;;18.20;99.90;;;;;;5029662;28;20030;-68
2021/07/28 05:31:54;;;;;;;9.85;7.70;;;18.20;99.90;;;;;;5030877;28;20064;-69
2021/07/28 05:34:19;;;;;;;7.75;6.95;;;18.30;99.90;;;;;;5032260;28;20033;-68
2021/07/28 05:36:45;;;;;;;8.98;7.53;;;18.30;99.90;;;;;;5052086;28;20425;-68
2021/07/28 05:39:11;;;;;;;8.63;7.13;;;18.30;99.90;;;;;;5038449;28;20061;-68
2021/07/28 05:41:36;;;;;;;10.52;7.97;;;18.30;99.90;;;;;;5031777;28;20422;-72
2021/07/28 05:44:07;;;;;;;11.20;8.73;;;18.40;99.90;;;;;;5030901;28;20155;-78
2021/07/28 05:46:34;;;;;;;11.20;7.35;;;18.50;99.90;;;;;;5031852;28;20029;-77
2021/07/28 05:49:00;;;;;;;10.27;7.15;;;18.60;99.90;;;;;;5030873;28;20511;-77
2021/07/28 05:51:26;;;;;;;10.93;7.65;;;18.60;99.90;;;;;;5031818;28;20144;-78
2021/07/28 05:53:51;;;;;;;10.32;8.13;;;18.70;99.90;;;;;;5034056;28;20047;-77
2021/07/28 05:56:17;;;;;;;13.85;7.50;;;18.70;99.90;;;;;;5030912;28;20155;-82
2021/07/28 05:58:42;;;;;;;9.98;6.57;;;18.80;99.90;;;;;;5031605;28;20406;-77
2021/07/28 06:01:08;;;;;;;12.15;7.25;;;18.80;99.90;;;;;;5031024;28;20032;-77
2021/07/28 06:03:34;;;;;;;9.10;7.32;;;18.80;99.90;;;;;;5034416;28;20033;-78
2021/07/28 06:05:59;;;;;;;7.32;6.30;;;18.80;99.90;;;;;;5050971;28;20128;-77
2021/07/28 06:08:25;;;;;;;7.05;6.05;;;18.90;99.90;;;;;;5037920;28;20040;-77
2021/07/28 06:10:51;;;;;;;7.90;5.68;;;18.90;99.90;;;;;;5030759;28;20397;-78
2021/07/28 06:13:16;;;;;;;6.45;5.75;;;18.90;99.90;;;;;;5030365;28;20075;-77
2021/07/28 06:15:42;;;;;;;9.55;6.15;;;19.00;99.90;;;;;;5031395;28;20034;-77
2021/07/28 06:18:08;;;;;;;6.40;5.80;;;19.00;99.90;;;;;;5029261;28;20032;-78
2021/07/28 06:20:33;;;;;;;6.03;5.30;;;19.10;99.90;;;;;;5031366;28;20029;-77
2021/07/28 06:22:59;;;;;;;6.20;5.22;;;19.10;99.90;;;;;;5030357;28;20034;-78
2021/07/28 06:25:25;;;;;;;6.82;5.78;;;19.20;99.90;;;;;;5049700;28;20025;-77
2021/07/28 06:27:51;;;;;;;8.20;5.85;;;19.20;99.90;;;;;;5037989;28;20029;-77
2021/07/28 06:30:17;;;;;;;7.40;5.43;;;19.30;99.90;;;;;;5030780;28;20028;-77
2021/07/28 06:32:43;;;;;;;5.45;4.93;;;19.20;99.90;;;;;;5031451;28;20429;-77
2021/07/28 06:35:09;;;;;;;6.38;4.78;;;19.20;99.90;;;;;;5030346;28;20026;-77
2021/07/28 06:37:35;;;;;;;7.38;4.97;;;19.20;99.90;;;;;;5029287;28;20056;-77
2021/07/28 06:40:00;;;;;;;6.13;4.70;;;19.10;99.90;;;;;;5030588;28;20386;-77
2021/07/28 06:42:26;;;;;;;6.70;5.75;;;19.10;99.90;;;;;;5031218;28;20080;-70
2021/07/28 06:44:52;;;;;;;7.03;5.63;;;19.00;99.90;;;;;;5030938;28;20037;-70
2021/07/28 06:47:19;;;;;;;7.10;5.32;;;19.00;99.90;;;;;;5031384;28;20105;-70
2021/07/28 06:49:44;;;;;;;5.90;5.30;;;18.90;99.90;;;;;;5030742;28;20476;-70
2021/07/28 06:52:10;;;;;;;7.30;5.88;;;18.80;99.90;;;;;;5027552;28;20036;-70
2021/07/28 06:54:36;;;;;;;7.55;5.88;;;18.70;99.90;;;;;;5037215;28;20029;-70
2021/07/28 06:57:02;;;;;;;7.65;6.43;;;18.60;99.90;;;;;;5031031;28;20022;-70
2021/07/28 06:59:27;;;;;;;7.93;6.72;;;18.50;99.90;;;;;;5030756;28;20033;-71
2021/07/28 07:01:53;;;;;;;7.32;6.45;;;18.40;99.90;;;;;;5030245;28;20040;-70
2021/07/28 07:04:18;;;;;;;9.52;6.97;;;18.30;99.90;;;;;;5030904;28;20031;-70
2021/07/28 07:06:44;;;;;;;7.22;6.35;;;18.20;99.90;;;;;;5032252;28;20021;-70
2021/07/28 07:09:10;;;;;;;9.85;7.28;;;18.10;99.90;;;;;;5033441;28;20126;-70
2021/07/28 07:11:35;;;;;;;10.32;7.20;;;18.00;99.90;;;;;;5047409;28;20453;-70
2021/07/28 07:14:01;;;;;;;11.35;6.40;;;18.00;99.90;;;;;;5041895;28;20455;-70
2021/07/28 07:16:27;;;;;;;10.10;7.10;;;18.00;99.90;;;;;;5034702;28;20021;-71
2021/07/28 07:18:53;;;;;;;8.10;6.47;;;18.10;99.90;;;;;;5033001;28;20040;-70
2021/07/28 07:21:19;;;;;;;11.05;6.65;;;18.10;99.90;;;;;;5034070;28;20033;-72
2021/07/28 07:23:45;;;;;;;9.20;7.03;;;18.10;99.90;;;;;;5034052;28;20052;-71
2021/07/28 07:26:10;;;;;;;8.65;6.82;;;18.20;99.90;;;;;;5033766;28;20021;-72
2021/07/28 07:28:36;;;;;;;7.95;6.57;;;18.20;99.90;;;;;;5032439;28;20033;-72
2021/07/28 07:31:02;;;;;;;9.73;6.53;;;18.20;99.90;;;;;;5032782;28;20033;-72
2021/07/28 07:33:40;;;;;;;8.77;6.82;;;18.20;99.90;;;;;;5033385;28;20026;-72
2021/07/28 07:36:08;;;;;;;9.55;6.40;;;18.20;99.90;;;;;;5013802;28;20053;-71
2021/07/28 07:38:34;;;;;;;8.95;6.32;;;18.30;99.90;;;;;;5033242;28;20131;-71
2021/07/28 07:41:00;;;;;;;12.93;7.43;;;18.40;99.90;;;;;;5033021;28;20176;-71
2021/07/28 07:43:25;;;;;;;7.78;6.68;;;18.40;99.90;;;;;;5034431;28;20441;-71
2021/07/28 07:45:55;;;;;;;9.93;6.65;;;18.50;99.90;;;;;;5034248;28;20033;-71
2021/07/28 07:48:21;;;;;;;11.70;6.50;;;18.60;99.90;;;;;;5034138;28;20037;-71
2021/07/28 07:50:47;;;;;;;11.75;6.28;;;18.70;99.90;;;;;;5033817;28;20061;-71
2021/07/28 07:53:12;;;;;;;9.10;6.13;;;18.80;99.90;;;;;;5033114;28;20052;-72
2021/07/28 07:55:38;;;;;;;9.23;6.32;;;18.80;99.90;;;;;;5033389;28;20064;-71
2021/07/28 07:58:04;;;;;;;6.50;5.90;;;18.80;99.90;;;;;;5029456;28;20029;-72
2021/07/28 08:00:30;;;;;;;10.73;6.45;;;18.70;99.90;;;;;;5028074;28;20091;-71
2021/07/28 08:02:56;;;;;;;7.32;6.63;;;18.70;99.90;;;;;;5032892;28;20029;-71
2021/07/28 08:05:21;;;;;;;7.70;6.32;;;18.70;99.90;;;;;;5033532;28;20099;-71
2021/07/28 08:07:47;;;;;;;9.90;6.50;;;18.60;99.90;;;;;;5033307;28;20080;-71
2021/07/28 08:10:13;;;;;;;8.68;6.53;;;18.50;99.90;;;;;;5032599;28;20029;-71
2021/07/28 08:12:39;;;;;;;7.53;5.93;;;18.50;99.90;;;;;;5033502;28;20044;-71
2021/07/28 08:15:05;;;;;;;9.85;6.22;;;18.50;99.90;;;;;;5033715;28;20387;-71
2021/07/28 08:17:31;;;;;;;10.30;5.60;;;18.60;99.90;;;;;;5051709;28;20061;-71
2021/07/28 08:19:57;;;;;;;9.38;6.50;;;18.60;99.90;;;;;;5032039;28;20079;-69
2021/07/28 08:22:23;;;;;;;7.88;6.30;;;18.60;99.90;;;;;;5033106;28;20091;-70
2021/07/28 08:24:49;;;;;;;7.30;6.15;;;18.60;99.90;;;;;;5032927;28;20033;-70
2021/07/28 08:27:15;;;;;;;8.05;6.03;;;18.50;99.90;;;;;;5031897;28;20033;-70
2021/07/28 08:29:40;;;;;;;8.07;6.57;;;18.50;99.90;;;;;;5032876;28;20040;-70
2021/07/28 08:32:06;;;;;;;11.60;6.53;;;18.50;99.90;;;;;;5031339;28;20091;-70
2021/07/28 08:34:33;;;;;;;9.57;6.22;;;18.60;99.90;;;;;;5032792;28;20040;-71
2021/07/28 08:36:58;;;;;;;9.75;6.03;;;18.60;99.90;;;;;;5031911;28;20528;-69
2021/07/28 08:39:24;;;;;;;7.70;5.85;;;18.80;99.90;;;;;;5032761;28;20080;-70
2021/07/28 08:41:52;;;;;;;8.38;6.32;;;18.90;99.90;;;;;;5032650;28;20124;-70
2021/07/28 08:44:20;;;;;;;7.15;6.05;;;19.00;99.90;;;;;;5032139;28;20029;-70
2021/07/28 08:46:46;;;;;;;9.30;6.05;;;19.10;99.90;;;;;;5032723;28;20033;-70
2021/07/28 08:49:16;;;;;;;7.60;5.75;;;19.10;99.90;;;;;;5031985;28;20035;-70
2021/07/28 08:51:43;;;;;;;11.18;6.35;;;19.10;99.90;;;;;;5032054;28;20112;-70
2021/07/28 08:54:10;;;;;;;8.85;6.00;;;19.20;99.90;;;;;;5039803;28;20033;-70
2021/07/28 08:56:39;;;;;;;10.75;5.82;;;19.30;99.90;;;;;;5035151;28;20032;-70
2021/07/28 08:59:05;;;;;;;7.90;4.97;;;19.40;99.90;;;;;;5031650;28;20060;-70
2021/07/28 09:01:31;;;;;;;10.57;6.10;;;19.50;99.90;;;;;;5042441;28;20033;-70
2021/07/28 09:03:57;;;;;;;8.23;5.32;;;19.70;99.90;;;;;;5052254;28;20481;-70
2021/07/28 09:06:27;;;;;;;6.40;5.32;;;19.80;99.90;;;;;;5036153;28;20079;-70
2021/07/28 09:08:57;;;;;;;6.53;5.50;;;20.00;99.90;;;;;;5032453;28;20371;-70
2021/07/28 09:11:23;;;;;;;6.07;5.47;;;20.20;99.90;;;;;;5032662;28;20124;-70
2021/07/28 09:13:48;;;;;;;8.65;5.22;;;20.30;99.90;;;;;;5032458;28;20105;-70
2021/07/28 09:16:16;;;;;;;10.88;5.22;;;20.40;99.90;;;;;;5031062;28;20044;-70
2021/07/28 09:18:47;;;;;;;8.57;5.47;;;20.50;99.90;;;;;;5032548;28;20048;-70
2021/07/28 09:21:21;;;;;;;9.88;5.47;;;20.80;99.90;;;;;;5031037;28;20091;-71
2021/07/28 09:23:48;;;;;;;7.00;4.88;;;21.00;99.90;;;;;;5033000;28;20041;-71
2021/07/28 09:26:38;;;;;;;6.03;4.78;;;21.00;99.90;;;;;;5031484;28;20909;-71
2021/07/28 09:29:11;;;;;;;7.38;4.30;;;21.20;99.90;;;;;;5035114;28;20052;-71
2021/07/28 09:31:46;;;;;;;6.70;5.32;;;21.30;99.90;;;;;;5037662;28;20063;-71
2021/07/28 09:34:18;;;;;;;7.65;4.88;;;21.40;99.90;;;;;;5031600;28;20040;-71
2021/07/28 09:36:45;;;;;;;8.45;5.10;;;21.50;99.90;;;;;;5032019;28;20029;-70
2021/07/28 09:39:26;;;;;;;6.05;4.53;;;21.50;99.80;;;;;;5030313;28;20060;-71
2021/07/28 09:41:54;;;;;;;7.45;4.50;;;21.50;99.90;;;;;;5031780;28;20494;-71
2021/07/28 09:44:28;;;;;;;7.03;4.63;;;21.60;99.90;;;;;;5031254;28;20060;-71
2021/07/28 09:47:17;;;;;;;6.20;5.07;;;21.70;99.70;;;;;;5033461;28;20036;-71
2021/07/28 09:49:44;;;;;;;9.43;5.22;;;21.70;99.30;;;;;;5032200;28;20068;-71
2021/07/28 09:52:18;;;;;;;5.10;4.60;;;21.80;99.60;;;;;;5031369;28;20044;-71
2021/07/28 09:54:45;;;;;;;6.20;4.60;;;21.80;98.50;;;;;;5044466;28;20021;-70
2021/07/28 09:57:15;;;;;;;5.00;4.50;;;21.80;98.50;;;;;;5048674;28;20098;-71
2021/07/28 09:59:44;;;;;;;4.95;4.43;;;21.90;98.20;;;;;;5038128;28;20052;-71
2021/07/28 10:02:12;;;;;;;5.22;4.28;;;22.00;97.80;;;;;;5037708;28;20558;-71
2021/07/28 10:04:42;;;;;;;8.23;4.45;;;22.10;97.90;;;;;;5031457;28;20025;-71
2021/07/28 10:07:07;;;;;;;6.47;4.57;;;22.20;97.00;;;;;;5030672;28;20021;-71
2021/07/28 10:09:37;;;;;;;6.75;3.97;;;22.40;97.40;;;;;;5039249;28;20314;-71
2021/07/28 10:12:03;;;;;;;5.30;3.90;;;22.60;95.80;;;;;;5046952;28;20466;-71
2021/07/28 10:14:30;;;;;;;4.80;4.10;;;22.90;94.90;;;;;;5051329;28;20379;-71
2021/07/28 10:16:56;;;;;;;5.20;4.22;;;23.00;93.10;;;;;;5050813;28;20035;-71
2021/07/28 10:19:23;;;;;;;5.38;4.50;;;23.00;92.80;;;;;;5040259;28;20402;-71
2021/07/28 10:21:50;;;;;;;6.32;4.35;;;23.00;92.50;;;;;;5031419;28;20374;-70
2021/07/28 10:24:16;;;;;;;4.72;3.53;;;23.10;92.00;;;;;;5040503;28;20510;-71
2021/07/28 10:26:48;;;;;;;5.05;4.30;;;23.00;92.10;;;;;;5051358;28;20116;-71
2021/07/28 10:29:18;;;;;;;4.22;3.72;;;23.00;92.00;;;;;;5050525;28;20052;-71
2021/07/28 10:31:48;;;;;;;4.97;4.47;;;23.00;92.20;;;;;;5051153;28;20025;-71
2021/07/28 10:34:28;;;;;;;10.27;4.10;;;22.90;91.70;;;;;;5043564;28;20034;-71
2021/07/28 10:37:01;;;;;;;5.05;3.50;;;23.00;91.30;;;;;;5031213;28;20022;-71
2021/07/28 10:39:44;;;;;;;4.90;4.30;;;23.00;91.90;;;;;;5031389;28;20467;-71
2021/07/28 10:42:16;;;;;;;5.35;4.35;;;23.00;91.40;;;;;;5032338;28;20112;-71
2021/07/28 10:45:01;;;;;;;7.00;4.45;;;23.00;90.80;;;;;;5035140;28;20493;-71
2021/07/28 10:47:37;;;;;;;7.38;4.53;;;22.90;90.90;;;;;;5035278;28;20080;-71
2021/07/28 10:50:30;;;;;;;9.07;4.25;;;22.80;90.60;;;;;;5034407;28;20057;-71
2021/07/28 10:52:56;;;;;;;6.40;4.05;;;22.70;90.30;;;;;;5044976;28;20040;-71
2021/07/28 10:55:24;;;;;;;5.05;4.40;;;22.60;90.60;;;;;;5053204;28;20367;-71
2021/07/28 10:57:56;;;;;;;7.40;4.80;;;22.80;90.60;;;;;;5055147;28;20024;-71
2021/07/28 11:00:37;;;;;;;4.22;3.83;;;22.90;90.90;;;;;;5042975;28;20026;-71
2021/07/28 11:03:04;;;;;;;6.57;4.30;;;23.20;90.00;;;;;;5033728;28;20033;-71
2021/07/28 11:05:37;;;;;;;6.20;4.00;;;23.10;89.50;;;;;;5035123;28;20029;-70
2021/07/28 11:08:02;;;;;;;6.70;4.45;;;23.10;88.90;;;;;;5040280;28;20064;-70
2021/07/28 11:10:42;;;;;;;8.35;4.13;;;23.10;90.20;;;;;;5036752;28;20057;-69
2021/07/28 11:13:12;;;;;;;8.27;3.80;;;23.00;88.30;;;;;;5038961;28;20033;-69
2021/07/28 11:15:49;;;;;;;5.30;3.70;;;22.90;89.60;;;;;;5055369;28;20036;-69
2021/07/28 11:18:15;;;;;;;5.43;4.40;;;23.00;90.10;;;;;;5054757;28;20052;-70
2021/07/28 11:20:41;;;;;;;8.30;4.40;;;23.10;90.00;;;;;;5055266;28;20411;-69
2021/07/28 11:23:21;;;;;;;4.55;4.10;;;23.20;90.20;;;;;;5054023;28;20528;-69
2021/07/28 11:25:48;;;;;;;5.32;4.13;;;23.50;88.90;;;;;;5022893;28;20037;-69
2021/07/28 11:28:17;;;;;;;6.97;4.47;;;23.80;86.90;;;;;;5036689;28;20098;-69
2021/07/28 11:30:43;;;;;;;6.80;3.90;;;24.00;85.50;;;;;;5054266;28;20112;-69
2021/07/28 11:33:18;;;;;;;8.48;4.60;;;24.30;85.10;;;;;;5040068;28;20057;-70
2021/07/28 11:35:45;;;;;;;6.82;4.13;;;24.50;84.30;;;;;;5054731;28;20071;-69
2021/07/28 11:38:15;;;;;;;5.38;3.83;;;24.70;81.50;;;;;;5053711;28;20075;-69
2021/07/28 11:40:46;;;;;;;7.72;4.35;;;24.40;81.70;;;;;;5054603;28;20024;-69
2021/07/28 11:43:28;;;;;;;6.13;4.47;;;24.30;82.10;;;;;;5054251;28;20060;-69
2021/07/28 11:46:01;;;;;;;5.30;4.40;;;24.20;82.20;;;;;;5054681;28;20075;-69
2021/07/28 11:48:37;;;;;;;4.60;4.07;;;24.30;83.20;;;;;;5051964;28;20028;-69
2021/07/28 11:51:05;;;;;;;5.72;4.03;;;24.40;81.90;;;;;;5033640;28;20060;-69
2021/07/28 11:53:32;;;;;;;5.78;4.18;;;24.60;80.60;;;;;;5036635;28;20042;-70
2021/07/28 11:56:11;;;;;;;3.85;3.53;;;24.60;80.80;;;;;;5054205;28;20108;-69
2021/07/28 11:58:45;;;;;;;6.68;4.03;;;24.60;81.10;;;;;;5044232;28;20033;-69
2021/07/28 12:01:24;;;;;;;4.53;3.83;;;24.80;77.20;;;;;;5041902;28;20124;-69
2021/07/28 12:04:02;;;;;;;5.72;4.22;;;25.00;77.30;;;;;;5051854;28;20108;-69
2021/07/28 12:06:39;;;;;;;5.68;3.92;;;25.10;76.80;;;;;;5014186;28;20029;-69
2021/07/28 12:09:16;;;;;;;5.43;3.78;;;25.30;74.60;;;;;;5019698;28;20025;-70
2021/07/28 12:11:55;;;;;;;4.78;3.95;;;25.40;76.00;;;;;;5033952;28;20120;-69
2021/07/28 12:14:38;;;;;;;4.82;3.80;;;25.40;74.80;;;;;;5033244;28;20101;-70
2021/07/28 12:17:03;;;;;;;6.05;4.00;;;25.30;74.00;;;;;;5033217;28;20057;-70
2021/07/28 12:19:30;;;;;;;6.47;4.47;;;25.20;73.10;;;;;;5033894;28;20422;-70
2021/07/28 12:22:16;;;;;;;6.13;3.90;;;25.40;73.80;;;;;;5034095;28;20034;-70
2021/07/28 12:24:42;;;;;;;4.70;4.15;;;26.00;71.70;;;;;;5044389;28;20138;-69
2021/07/28 12:27:26;;;;;;;6.78;3.50;;;26.30;69.80;;;;;;5053012;28;20128;-70
2021/07/28 12:30:07;;;;;;;4.53;3.90;;;26.50;68.80;;;;;;5052249;28;20072;-70
2021/07/28 12:32:40;;;;;;;6.68;3.80;;;26.40;68.00;;;;;;5051651;28;20037;-70
2021/07/28 12:35:15;;;;;;;6.70;3.63;;;26.40;68.50;;;;;;5052645;28;20033;-72
2021/07/28 12:37:41;;;;;;;6.80;3.72;;;26.90;67.80;;;;;;5053184;28;20053;-71
2021/07/28 12:40:08;;;;;;;5.43;3.83;;;27.50;65.40;;;;;;5052056;28;20467;-72
2021/07/28 12:42:34;;;;;;;4.82;3.80;;;27.80;64.80;;;;;;5052461;28;20393;-72
2021/07/28 12:45:00;;;;;;;5.22;3.97;;;28.10;62.60;;;;;;5052146;28;20029;-72
2021/07/28 12:47:26;;;;;;;5.72;3.83;;;28.40;61.50;;;;;;5051097;28;20025;-70
2021/07/28 12:49:52;;;;;;;6.38;3.38;;;28.90;60.10;;;;;;5032822;28;20048;-71
2021/07/28 12:52:18;;;;;;;5.32;3.70;;;29.40;59.60;;;;;;5042723;28;20028;-72